Погода Кызылаутна 2 недели

Жамбылская область, Казахстан

16 - 28 июля
  • 16июля
    Сегодня
    +22°
    +32°
    Ясно и безоблачно
    ВремяПогодаТемператураВлажностьДавлениеВетер, м/сВероятность осадков
    02:00Небольшая облачность и лёгкий дождик+22°C58 %710 мм3.6 м/с25 %
    05:00Практически безоблачно+21°C66 %711 мм2.7 м/с25 %
    08:00Небольшая облачность+26°C49 %712 мм6.9 м/с10 %
    11:00Практически безоблачно+30°C34 %712 мм8.6 м/с7 %
    14:00Ясно и безоблачно+30°C37 %712 мм7.6 м/с10 %
    17:00Практически безоблачно+31°C31 %711 мм5.9 м/с6 %
    20:00Облачно с прояснениями+27°C41 %711 мм2.1 м/с6 %
    23:00Практически безоблачно+24°C47 %710 мм1.4 м/с10 %
  • 17июля
    Среда
    +20°
    +35°
    Практически безоблачно
    ВремяПогодаТемператураВлажностьДавлениеВетер, м/сВероятность осадков
    02:00Небольшая облачность+22°C57 %711 мм1.7 м/с11 %
    05:00Практически безоблачно+22°C58 %711 мм3.4 м/с17 %
    08:00Облачно с прояснениями+26°C54 %712 мм3.0 м/с18 %
    11:00Практически безоблачно+31°C38 %712 мм2.6 м/с25 %
    14:00Практически безоблачно+34°C28 %711 мм6.4 м/с11 %
    17:00Небольшая облачность+33°C30 %711 мм4.7 м/с13 %
    20:00Ясно и безоблачно+27°C49 %711 мм1.8 м/с3 %
    23:00Ясно и безоблачно+24°C58 %710 мм1.5 м/с7 %
  • 18июля
    Четверг
    +21°
    +35°
    Ясно и безоблачно
    ВремяПогодаТемператураВлажностьДавлениеВетер, м/сВероятность осадков
    02:00Ясно и безоблачно+23°C63 %709 мм0.9 м/с3 %
    05:00Ясно и безоблачно+20°C69 %708 мм2.2 м/с4 %
    08:00Ясно и безоблачно+28°C40 %710 мм0.2 м/с7 %
    11:00Практически безоблачно+33°C27 %710 мм3.2 м/с5 %
    14:00Ясно и безоблачно+34°C25 %710 мм6.0 м/с6 %
    17:00Ясно и безоблачно+35°C27 %709 мм5.0 м/с7 %
    20:00Практически безоблачно+29°C37 %710 мм2.3 м/с2 %
    23:00Ясно и безоблачно+25°C51 %710 мм1.9 м/с2 %
  • 19июля
    Пятница
    +23°
    +33°
    Ясно и безоблачно
    ВремяПогодаТемператураВлажностьДавлениеВетер, м/сВероятность осадков
    02:00Ясно и безоблачно+24°C58 %709 мм1.1 м/с3 %
    05:00Ясно и безоблачно+22°C60 %708 мм1.5 м/с4 %
    08:00Ясно и безоблачно+26°C41 %709 мм1.1 м/с3 %
    11:00Ясно и безоблачно+31°C29 %709 мм5.0 м/с13 %
    14:00Ясно и безоблачно+32°C25 %709 мм5.5 м/с22 %
    17:00Ясно и безоблачно+32°C26 %709 мм5.1 м/с9 %
    20:00Ясно и безоблачно+28°C36 %709 мм1.9 м/с2 %
    23:00Ясно и безоблачно+25°C50 %709 мм2.0 м/с2 %
Мы используем cookies
Соглашаюсь